createdAt,value
2022-12-13T00:01:24.733Z,31.05
2022-12-13T00:03:58.690Z,51.50
2022-12-13T00:06:25.787Z,85.38
2022-12-13T00:08:53.182Z,48.13
2022-12-13T00:11:20.058Z,37.70
2022-12-13T00:13:48.025Z,44.95
2022-12-13T00:16:17.830Z,43.30
2022-12-13T00:18:49.549Z,47.10
2022-12-13T00:21:19.438Z,41.88
2022-12-13T00:23:46.970Z,43.72
2022-12-13T00:26:16.462Z,41.70
2022-12-13T00:28:43.453Z,38.28
2022-12-13T00:31:51.561Z,36.83
2022-12-13T00:33:58.177Z,33.47
2022-12-13T00:36:24.727Z,37.25
2022-12-13T00:39:00.509Z,32.90
2022-12-13T00:41:32.897Z,33.78
2022-12-13T00:44:00.615Z,40.30
2022-12-13T00:46:28.251Z,40.35
2022-12-13T00:48:59.972Z,37.30
2022-12-13T00:51:28.907Z,34.58
2022-12-13T00:53:55.888Z,34.35
2022-12-13T00:56:28.905Z,35.38
2022-12-13T00:58:56.653Z,33.90
2022-12-13T01:01:29.199Z,36.63
2022-12-13T01:03:59.340Z,29.40
2022-12-13T01:06:44.005Z,33.95
2022-12-13T01:09:20.150Z,30.92
2022-12-13T01:11:47.661Z,30.65
2022-12-13T01:14:14.756Z,33.17
2022-12-13T01:16:41.317Z,35.13
2022-12-13T01:19:07.969Z,34.35
2022-12-13T01:21:34.582Z,32.45
2022-12-13T01:24:05.748Z,32.33
2022-12-13T01:26:33.554Z,34.58
2022-12-13T01:29:00.990Z,33.28
2022-12-13T01:31:27.570Z,34.13
2022-12-13T01:33:54.226Z,30.38
2022-12-13T01:36:27.293Z,31.83
2022-12-13T01:38:58.033Z,32.45
2022-12-13T01:41:27.335Z,30.80
2022-12-13T01:43:57.469Z,32.17
2022-12-13T01:46:24.130Z,31.83
2022-12-13T01:49:20.274Z,32.10
2022-12-13T01:51:52.867Z,31.85
2022-12-13T01:54:33.703Z,35.03
2022-12-13T01:57:04.755Z,34.85
2022-12-13T02:07:49.496Z,30.45
2022-12-13T02:10:16.112Z,34.97
2022-12-13T02:12:43.385Z,35.95
2022-12-13T02:15:15.250Z,35.95
2022-12-13T02:18:00.293Z,37.80
2022-12-13T02:20:42.861Z,34.95
2022-12-13T02:23:40.436Z,30.90
2022-12-13T02:26:47.774Z,31.42
2022-12-13T02:29:49.560Z,37.25
2022-12-13T02:32:30.118Z,33.72
2022-12-13T02:35:18.654Z,35.42
2022-12-13T02:37:56.680Z,38.42
2022-12-13T02:40:47.511Z,33.75
2022-12-13T02:43:22.510Z,34.40
2022-12-13T02:45:52.403Z,35.00
2022-12-13T02:48:23.908Z,34.88
2022-12-13T02:50:52.090Z,33.97
2022-12-13T02:53:21.412Z,34.50
2022-12-13T02:55:48.015Z,37.35
2022-12-13T02:58:18.961Z,32.75
2022-12-13T03:00:58.487Z,34.58
2022-12-13T03:04:14.888Z,32.95
2022-12-13T03:07:00.013Z,32.90
2022-12-13T03:09:50.394Z,34.85
2022-12-13T03:12:57.760Z,35.50
2022-12-13T03:15:34.978Z,34.13
2022-12-13T03:18:15.434Z,34.80
2022-12-13T03:20:47.550Z,32.08
2022-12-13T03:23:14.562Z,34.85
2022-12-13T03:25:41.132Z,36.55
2022-12-13T03:28:07.740Z,36.22
2022-12-13T03:30:34.383Z,33.55
2022-12-13T03:33:01.431Z,33.92
2022-12-13T03:35:34.156Z,34.67
2022-12-13T03:38:02.316Z,37.10
2022-12-13T03:40:30.061Z,33.95
2022-12-13T03:42:56.629Z,32.83
2022-12-13T03:45:23.133Z,35.70
2022-12-13T03:47:49.630Z,33.70
2022-12-13T03:50:28.385Z,35.15
2022-12-13T03:52:59.593Z,34.80
2022-12-13T03:55:26.530Z,36.88
2022-12-13T03:57:53.065Z,34.53
2022-12-13T04:00:19.872Z,33.90
2022-12-13T04:02:46.460Z,31.65
2022-12-13T04:05:13.223Z,33.90
2022-12-13T04:07:40.332Z,35.60
2022-12-13T04:10:26.094Z,34.35
2022-12-13T04:13:12.568Z,35.25
2022-12-13T04:15:39.477Z,31.35
2022-12-13T04:18:06.080Z,36.33
2022-12-13T04:20:32.587Z,34.30
2022-12-13T04:22:59.186Z,34.35
2022-12-13T04:25:26.514Z,32.15
2022-12-13T04:27:52.993Z,35.22
2022-12-13T04:30:19.631Z,30.98
2022-12-13T04:32:46.176Z,35.05
2022-12-13T04:35:12.876Z,32.45
2022-12-13T04:37:39.728Z,35.28
2022-12-13T04:40:10.609Z,32.88
2022-12-13T04:42:37.241Z,34.40
2022-12-13T04:45:04.038Z,36.70
2022-12-13T04:47:30.542Z,34.67
2022-12-13T04:49:57.015Z,33.13
2022-12-13T04:52:24.079Z,32.22
2022-12-13T04:54:55.305Z,32.00
2022-12-13T04:57:23.505Z,37.20
2022-12-13T04:59:50.027Z,36.20
2022-12-13T05:02:23.561Z,30.70
2022-12-13T05:04:53.838Z,34.35
2022-12-13T05:07:20.871Z,33.95
2022-12-13T05:09:47.331Z,34.25
2022-12-13T05:12:23.063Z,33.90
2022-12-13T05:14:51.011Z,32.15
2022-12-13T05:17:17.539Z,33.50
2022-12-13T05:19:44.069Z,33.50
2022-12-13T05:22:19.685Z,35.80
2022-12-13T05:24:47.979Z,34.25
2022-12-13T05:27:25.807Z,32.88
2022-12-13T05:30:02.727Z,35.90
2022-12-13T05:32:43.816Z,34.08
2022-12-13T05:35:23.195Z,30.10
2022-12-13T05:37:55.128Z,31.58
2022-12-13T05:40:26.426Z,31.58
2022-12-13T05:43:01.449Z,33.10
2022-12-13T05:45:29.789Z,32.67
2022-12-13T05:47:56.311Z,35.78
2022-12-13T05:50:23.285Z,35.40
2022-12-13T05:52:49.839Z,35.42
2022-12-13T05:55:17.036Z,34.97
2022-12-13T05:57:50.661Z,33.38
2022-12-13T06:00:29.372Z,37.85
2022-12-13T06:03:00.912Z,35.55
2022-12-13T06:05:29.181Z,34.45
2022-12-13T06:07:57.403Z,33.42
2022-12-13T06:10:24.595Z,34.83
2022-12-13T06:12:51.134Z,39.50
2022-12-13T06:15:22.030Z,35.47
2022-12-13T06:17:49.290Z,40.65
2022-12-13T06:20:23.499Z,34.10
2022-12-13T06:22:54.042Z,37.08
2022-12-13T06:25:30.726Z,40.55
2022-12-13T06:28:00.833Z,43.45
2022-12-13T06:30:29.893Z,39.88
2022-12-13T06:32:57.664Z,43.25
2022-12-13T06:35:28.060Z,42.97
2022-12-13T06:38:01.341Z,38.72
2022-12-13T06:40:31.897Z,41.85
2022-12-13T06:42:58.429Z,44.67
2022-12-13T06:45:25.970Z,45.60
2022-12-13T06:47:52.580Z,39.38
2022-12-13T06:50:19.252Z,40.85
2022-12-13T06:52:46.658Z,43.95
2022-12-13T06:55:13.603Z,37.47
2022-12-13T06:57:40.599Z,42.28
2022-12-13T07:00:09.280Z,40.85
2022-12-13T07:02:35.943Z,47.75
2022-12-13T07:05:02.680Z,42.63
2022-12-13T07:07:29.702Z,43.97
2022-12-13T07:09:56.447Z,42.17
2022-12-13T07:12:23.448Z,45.25
2022-12-13T07:14:49.998Z,43.65
2022-12-13T07:17:31.892Z,42.10
2022-12-13T07:20:01.084Z,43.13
2022-12-13T07:22:28.205Z,42.58
2022-12-13T07:24:54.712Z,48.22
2022-12-13T07:27:21.234Z,42.28
2022-12-13T07:29:47.725Z,44.10
2022-12-13T07:32:14.432Z,39.20
2022-12-13T07:34:40.909Z,45.00
2022-12-13T07:37:09.431Z,44.10
2022-12-13T07:40:02.648Z,43.90
2022-12-13T07:42:30.318Z,41.03
2022-12-13T07:44:56.826Z,44.83
2022-12-13T07:47:23.508Z,43.97
2022-12-13T07:49:50.037Z,43.72
2022-12-13T07:52:16.642Z,46.42
2022-12-13T07:54:43.908Z,47.50
2022-12-13T07:57:10.920Z,43.10
2022-12-13T07:59:37.422Z,41.47
2022-12-13T08:02:03.982Z,43.70
2022-12-13T08:04:37.751Z,42.00
2022-12-13T08:07:09.033Z,42.05
2022-12-13T08:09:36.294Z,44.97
2022-12-13T08:12:03.380Z,43.03
2022-12-13T08:14:29.884Z,41.70
2022-12-13T08:16:56.867Z,43.63
2022-12-13T08:19:24.041Z,44.00
2022-12-13T08:21:55.664Z,42.88
2022-12-13T08:24:24.947Z,40.70
2022-12-13T08:26:54.594Z,42.47
2022-12-13T08:29:23.096Z,43.17
2022-12-13T08:32:02.111Z,40.10
2022-12-13T08:34:29.169Z,35.72
2022-12-13T08:37:02.143Z,37.28
2022-12-13T08:39:34.002Z,39.90
2022-12-13T08:42:16.655Z,40.20
2022-12-13T08:47:12.125Z,41.28
2022-12-13T08:49:50.695Z,46.35
2022-12-13T08:52:17.842Z,40.15
2022-12-13T08:54:44.716Z,37.22
2022-12-13T08:57:11.227Z,40.60
2022-12-13T08:59:37.715Z,39.75
2022-12-13T09:02:05.297Z,42.38
2022-12-13T09:04:32.409Z,47.65
2022-12-13T09:07:01.740Z,43.28
2022-12-13T09:09:29.699Z,42.17
2022-12-13T09:11:59.483Z,41.85
2022-12-13T09:14:33.537Z,45.85
2022-12-13T09:17:02.810Z,37.35
2022-12-13T09:19:37.393Z,43.22
2022-12-13T09:22:05.178Z,45.10
2022-12-13T09:24:36.723Z,45.55
2022-12-13T09:27:09.046Z,43.55
2022-12-13T09:29:37.229Z,45.00
2022-12-13T09:32:04.363Z,44.05
2022-12-13T09:34:32.928Z,42.83
2022-12-13T09:37:01.538Z,42.95
2022-12-13T09:39:29.360Z,44.22
2022-12-13T09:42:01.245Z,42.38
2022-12-13T09:44:43.680Z,43.67
2022-12-13T09:47:23.640Z,41.67
2022-12-13T09:49:53.789Z,40.92
2022-12-13T09:52:23.628Z,40.60
2022-12-13T09:54:54.026Z,36.45
2022-12-13T09:57:31.413Z,45.50
2022-12-13T10:00:12.451Z,40.55
2022-12-13T10:02:47.048Z,47.08
2022-12-13T10:05:34.192Z,47.38
2022-12-13T10:08:13.612Z,70.35
2022-12-13T10:10:40.277Z,44.30
2022-12-13T10:13:15.736Z,42.42
2022-12-13T10:15:46.660Z,44.53
2022-12-13T10:18:20.091Z,42.60
2022-12-13T10:20:49.407Z,38.58
2022-12-13T10:23:33.691Z,35.10
2022-12-13T10:26:09.821Z,41.70
2022-12-13T10:28:51.455Z,41.85
2022-12-13T10:31:20.336Z,40.33
2022-12-13T10:33:55.517Z,42.97
2022-12-13T10:36:32.899Z,37.33
2022-12-13T10:38:59.432Z,38.78
2022-12-13T10:41:37.885Z,34.47
2022-12-13T10:44:11.484Z,34.45
2022-12-13T10:46:40.639Z,33.47
2022-12-13T10:49:24.837Z,33.60
2022-12-13T10:51:53.741Z,33.08
2022-12-13T10:54:29.673Z,35.13
2022-12-13T10:57:10.602Z,33.83
2022-12-13T10:59:39.535Z,29.95
2022-12-13T11:02:51.373Z,33.38
2022-12-13T11:05:33.399Z,29.23
2022-12-13T11:08:22.274Z,29.20
2022-12-13T11:11:04.453Z,29.33
2022-12-13T11:13:40.395Z,30.60
2022-12-13T11:16:24.659Z,28.50
2022-12-13T11:18:54.603Z,30.02
2022-12-13T11:21:26.950Z,34.83
2022-12-13T11:23:56.337Z,30.20
2022-12-13T11:26:30.960Z,29.75
2022-12-13T11:29:16.373Z,28.63
2022-12-13T11:32:33.935Z,31.80
2022-12-13T11:35:25.926Z,30.23
2022-12-13T11:38:05.151Z,34.00
2022-12-13T11:40:43.754Z,31.08
2022-12-13T11:43:35.955Z,31.38
2022-12-13T11:46:15.263Z,34.47
2022-12-13T11:48:53.109Z,31.55
2022-12-13T11:51:28.324Z,26.15
2022-12-13T11:54:01.024Z,29.58
2022-12-13T11:56:33.284Z,33.67
2022-12-13T11:59:26.562Z,31.63
2022-12-13T12:02:34.185Z,28.13
2022-12-13T12:05:08.294Z,29.65
2022-12-13T12:08:21.057Z,30.33
2022-12-13T12:10:49.300Z,29.48
2022-12-13T12:13:34.325Z,27.27
2022-12-13T12:16:50.752Z,31.17
2022-12-13T12:19:23.313Z,29.48
2022-12-13T12:25:19.967Z,28.55
2022-12-13T12:28:04.855Z,29.23
2022-12-13T12:30:52.964Z,28.48
2022-12-13T12:33:19.422Z,25.27
2022-12-13T12:36:09.730Z,28.20
2022-12-13T12:38:38.974Z,27.73
2022-12-13T12:41:23.050Z,27.92
2022-12-13T12:44:00.205Z,25.65
2022-12-13T12:47:18.911Z,29.52
2022-12-13T12:50:22.226Z,31.88
2022-12-13T12:53:03.986Z,25.20
2022-12-13T12:56:01.047Z,30.65
2022-12-13T12:58:42.526Z,30.83
2022-12-13T13:01:28.848Z,25.23
2022-12-13T13:04:01.809Z,25.95
2022-12-13T13:06:37.624Z,29.67
2022-12-13T13:09:10.263Z,26.98
2022-12-13T13:11:42.797Z,27.77
2022-12-13T13:14:28.750Z,27.25
2022-12-13T13:16:55.878Z,29.98
2022-12-13T13:19:31.177Z,30.13
2022-12-13T13:22:02.376Z,31.40
2022-12-13T13:24:32.778Z,35.00
2022-12-13T13:27:11.509Z,39.42
2022-12-13T13:29:43.265Z,31.77
2022-12-13T13:32:28.647Z,34.40
2022-12-13T13:35:32.360Z,33.72
2022-12-13T13:38:22.187Z,56.70
2022-12-13T13:40:49.008Z,34.42
2022-12-13T13:43:31.860Z,66.20
2022-12-13T13:46:02.027Z,31.25
2022-12-13T13:48:55.679Z,30.98
2022-12-13T13:54:13.989Z,29.60
2022-12-13T13:56:59.173Z,32.22
2022-12-13T13:59:40.969Z,31.00
2022-12-13T14:02:16.647Z,28.33
2022-12-13T14:05:23.176Z,28.45
2022-12-13T14:08:07.802Z,27.85
2022-12-13T14:10:37.177Z,25.98
2022-12-13T14:13:44.957Z,26.58
2022-12-13T14:16:40.085Z,28.55
2022-12-13T14:19:24.882Z,26.05
2022-12-13T14:22:03.468Z,28.85
2022-12-13T14:24:40.212Z,26.23
2022-12-13T14:27:23.248Z,27.08
2022-12-13T14:29:58.181Z,25.85
2022-12-13T14:32:29.410Z,26.50
2022-12-13T14:34:57.745Z,27.13
2022-12-13T14:37:37.750Z,24.70
2022-12-13T14:40:26.997Z,28.23
2022-12-13T14:42:56.408Z,25.50
2022-12-13T14:45:29.499Z,26.25
2022-12-13T14:48:15.211Z,29.15
2022-12-13T14:50:44.520Z,26.30
2022-12-13T14:53:29.877Z,25.40
2022-12-13T14:56:27.750Z,31.45
2022-12-13T14:59:01.366Z,29.23
2022-12-13T15:01:38.428Z,32.00
2022-12-13T15:04:29.556Z,27.23
2022-12-13T15:07:07.141Z,28.50
2022-12-13T15:09:42.339Z,31.88
2022-12-13T15:12:24.785Z,32.67
2022-12-13T15:15:08.318Z,31.13
2022-12-13T15:17:37.320Z,35.85
2022-12-13T15:20:22.389Z,32.13
2022-12-13T15:23:01.181Z,31.38
2022-12-13T15:25:34.742Z,33.90
2022-12-13T15:28:01.525Z,33.85
2022-12-13T15:30:34.270Z,33.50
2022-12-13T15:33:05.390Z,35.15
2022-12-13T15:35:32.331Z,33.22
2022-12-13T15:38:01.223Z,35.78
2022-12-13T15:40:27.768Z,33.33
2022-12-13T15:42:54.383Z,32.83
2022-12-13T15:45:28.265Z,33.35
2022-12-13T15:48:00.032Z,32.42
2022-12-13T15:50:48.964Z,34.20
2022-12-13T15:53:27.733Z,34.30
2022-12-13T15:55:54.616Z,40.88
2022-12-13T15:58:27.236Z,39.80
2022-12-13T16:00:54.093Z,38.40
2022-12-13T16:03:23.731Z,35.67
2022-12-13T16:05:53.223Z,44.08
2022-12-13T16:08:28.035Z,41.33
2022-12-13T16:10:55.069Z,46.38
2022-12-13T16:13:37.106Z,39.28
2022-12-13T16:16:10.104Z,34.47
2022-12-13T16:18:46.046Z,34.88
2022-12-13T16:21:14.193Z,35.28
2022-12-13T16:23:40.828Z,40.85
2022-12-13T16:26:20.771Z,36.08
2022-12-13T16:28:47.192Z,40.90
2022-12-13T16:31:22.913Z,37.05
2022-12-13T16:33:49.912Z,35.72
2022-12-13T16:36:16.577Z,37.63
2022-12-13T16:38:43.344Z,44.30
2022-12-13T16:41:10.361Z,36.38
2022-12-13T16:43:46.524Z,37.72
2022-12-13T16:47:17.975Z,38.88
2022-12-13T16:49:05.438Z,40.28
2022-12-13T16:51:31.925Z,38.58
2022-12-13T16:53:58.386Z,36.53
2022-12-13T16:56:24.930Z,33.80
2022-12-13T16:58:51.413Z,43.65
2022-12-13T17:01:20.055Z,39.08
2022-12-13T17:03:46.901Z,41.58
2022-12-13T17:06:14.907Z,35.15
2022-12-13T17:08:41.449Z,33.80
2022-12-13T17:11:13.323Z,33.20
2022-12-13T17:13:44.640Z,32.42
2022-12-13T17:16:11.400Z,33.65
2022-12-13T17:18:38.053Z,34.80
2022-12-13T17:21:08.631Z,33.53
2022-12-13T17:23:35.139Z,33.25
2022-12-13T17:26:10.111Z,33.13
2022-12-13T17:28:36.842Z,35.47
2022-12-13T17:31:10.083Z,33.58
2022-12-13T17:33:36.648Z,34.72
2022-12-13T17:36:07.828Z,34.65
2022-12-13T17:38:34.651Z,31.20
2022-12-13T17:41:01.296Z,34.03
2022-12-13T17:43:34.317Z,33.83
2022-12-13T17:46:04.187Z,33.42
2022-12-13T17:48:39.273Z,36.13
2022-12-13T17:51:08.348Z,31.98
2022-12-13T17:53:36.036Z,30.55
2022-12-13T17:56:06.511Z,34.15
2022-12-13T17:58:33.713Z,34.42
2022-12-13T18:01:16.865Z,31.42
2022-12-13T18:03:44.112Z,34.35
2022-12-13T18:06:11.911Z,36.85
2022-12-13T18:08:42.335Z,34.70
2022-12-13T18:11:31.910Z,32.63
2022-12-13T18:13:56.084Z,34.03
2022-12-13T18:16:26.724Z,32.83
2022-12-13T18:18:57.042Z,33.63
2022-12-13T18:21:25.931Z,50.50
2022-12-13T18:23:55.501Z,61.53
2022-12-13T18:26:24.347Z,35.70
2022-12-13T18:28:51.790Z,35.65
2022-12-13T18:31:22.319Z,36.97
2022-12-13T18:33:51.146Z,35.53
2022-12-13T18:36:19.495Z,33.78
2022-12-13T18:38:47.944Z,32.45
2022-12-13T18:41:17.398Z,35.55
2022-12-13T18:43:45.180Z,33.50
2022-12-13T18:46:13.518Z,35.03
2022-12-13T18:48:40.591Z,34.97
2022-12-13T18:51:09.001Z,35.45
2022-12-13T18:53:37.252Z,32.38
2022-12-13T18:56:07.749Z,32.95
2022-12-13T18:58:36.962Z,32.70
2022-12-13T19:01:04.810Z,32.58
2022-12-13T19:03:32.466Z,31.67
2022-12-13T19:06:01.019Z,33.08
2022-12-13T19:08:30.657Z,32.38
2022-12-13T19:10:59.996Z,31.60
2022-12-13T19:13:27.451Z,32.80
2022-12-13T19:15:56.841Z,31.95
2022-12-13T19:18:23.571Z,36.22
2022-12-13T19:20:53.575Z,34.00
2022-12-13T19:23:20.674Z,33.85
2022-12-13T19:25:48.727Z,33.53
2022-12-13T19:28:17.541Z,31.25
2022-12-13T19:30:46.227Z,31.92
2022-12-13T19:33:14.073Z,31.52
2022-12-13T19:35:43.039Z,30.13
2022-12-13T19:38:10.134Z,33.97
2022-12-13T19:40:43.519Z,33.10
2022-12-13T19:43:11.372Z,28.90
2022-12-13T19:45:38.490Z,29.85
2022-12-13T19:48:05.611Z,30.27
2022-12-13T19:50:32.112Z,30.40
2022-12-13T19:52:58.582Z,30.30
2022-12-13T19:55:25.091Z,29.83
2022-12-13T19:57:51.706Z,29.73
2022-12-13T20:00:18.406Z,27.27
2022-12-13T20:02:45.032Z,26.48
2022-12-13T20:05:11.584Z,29.58
2022-12-13T20:07:38.157Z,28.77
2022-12-13T20:10:05.989Z,29.23
2022-12-13T20:12:38.860Z,25.67
2022-12-13T20:15:07.714Z,30.88
2022-12-13T20:17:35.579Z,27.20
2022-12-13T20:20:02.632Z,27.17
2022-12-13T20:22:29.240Z,29.50
2022-12-13T20:24:55.723Z,26.85
2022-12-13T20:27:22.271Z,26.35
2022-12-13T20:29:49.308Z,24.75
2022-12-13T20:32:16.460Z,29.88
2022-12-13T20:34:43.078Z,28.85
2022-12-13T20:37:09.671Z,26.33
2022-12-13T20:39:36.352Z,25.92
2022-12-13T20:42:02.890Z,28.13
2022-12-13T20:44:29.455Z,24.75
2022-12-13T20:46:56.042Z,25.67
2022-12-13T20:49:22.591Z,27.27
2022-12-13T20:51:49.124Z,26.88
2022-12-13T20:54:15.681Z,22.63
2022-12-13T20:56:42.251Z,27.98
2022-12-13T20:59:11.977Z,28.08
2022-12-13T21:01:40.806Z,28.75
2022-12-13T21:04:10.083Z,26.48
2022-12-13T21:06:39.936Z,27.50
2022-12-13T21:09:31.281Z,25.40
2022-12-13T21:19:44.560Z,27.73
2022-12-13T21:23:38.201Z,29.02
2022-12-13T21:34:19.780Z,27.33
2022-12-13T21:37:17.096Z,28.45
2022-12-13T21:44:21.817Z,29.67
2022-12-13T21:59:16.237Z,27.52
2022-12-13T22:06:48.655Z,49.50
2022-12-13T22:13:24.728Z,31.10
2022-12-13T22:16:48.234Z,27.50
2022-12-13T22:23:37.142Z,30.95
2022-12-13T22:26:49.616Z,33.30
2022-12-13T22:29:54.392Z,28.10
2022-12-13T22:33:08.190Z,30.80
2022-12-13T22:36:06.096Z,26.70
2022-12-13T22:46:31.160Z,30.42
2022-12-13T22:49:41.221Z,28.60
2022-12-13T22:55:56.260Z,30.77
2022-12-13T22:58:36.070Z,26.58
2022-12-13T23:01:47.293Z,30.33
2022-12-13T23:08:43.279Z,31.13
2022-12-13T23:12:12.284Z,30.40
2022-12-13T23:18:18.651Z,30.20
2022-12-13T23:21:56.631Z,31.25
2022-12-13T23:24:46.880Z,28.70
2022-12-13T23:31:56.498Z,30.45
2022-12-13T23:38:29.700Z,30.38
2022-12-13T23:41:45.244Z,34.25
2022-12-13T23:45:09.171Z,30.98
2022-12-13T23:58:21.085Z,33.25
